Time;durP1;ratioP1;P1;durP2;ratioP2;P2;SDS_P1;SDS_P2;PMS_P1;PMS_P2;Temp;Humidity;BMP_temperature;BMP_pressure;BME280_temperature;BME280_humidity;BME280_pressure;Samples;Min_cycle;Max_cycle;Signal;HPM_P1;HPM_P2
2022/06/15 00:00:44;;;;;;;3.45;1.57;;;;;;;18.38;50.37;152271.72;1690573;84;21273;-62
2022/06/15 00:03:13;;;;;;;5.30;1.82;;;;;;;18.35;50.23;152265.22;1690609;84;21530;-61
2022/06/15 00:05:42;;;;;;;3.98;1.77;;;;;;;18.32;50.28;152258.69;1690542;84;21033;-61
2022/06/15 00:08:09;;;;;;;3.60;1.70;;;;;;;18.29;50.32;152249.53;1690604;84;21025;-63
2022/06/15 00:10:39;;;;;;;3.10;1.40;;;;;;;18.27;50.44;152244.33;1690607;84;21452;-62
2022/06/15 00:13:08;;;;;;;3.67;1.37;;;;;;;18.23;50.56;152235.17;1690607;84;20953;-62
2022/06/15 00:15:36;;;;;;;4.60;1.30;;;;;;;18.22;50.53;152232.56;1690479;84;21065;-62
2022/06/15 00:18:03;;;;;;;2.30;1.52;;;;;;;18.23;50.43;152235.17;1690470;84;21060;-62
2022/06/15 00:20:30;;;;;;;2.47;1.50;;;;;;;18.21;50.53;152229.97;1690568;84;21009;-62
2022/06/15 00:22:57;;;;;;;2.77;1.60;;;;;;;18.20;50.58;152227.36;1690529;83;21101;-62
2022/06/15 00:25:24;;;;;;;2.45;1.75;;;;;;;18.18;50.73;152222.14;1690539;84;21453;-63
2022/06/15 00:27:51;;;;;;;7.95;1.80;;;;;;;18.16;51.05;152216.92;1690453;84;21056;-61
2022/06/15 00:30:21;;;;;;;5.72;2.15;;;;;;;18.15;51.46;152214.31;1690669;84;21040;-62
2022/06/15 00:32:49;;;;;;;5.47;1.90;;;;;;;18.13;51.62;152209.11;1690587;84;20996;-63
2022/06/15 00:35:18;;;;;;;2.35;1.65;;;;;;;18.07;51.89;152194.75;1690600;84;21088;-62
2022/06/15 00:37:46;;;;;;;3.02;1.60;;;;;;;18.00;52.21;152177.73;1690455;84;21146;-63
2022/06/15 00:40:13;;;;;;;2.35;1.35;;;;;;;17.98;52.16;152171.23;1690575;84;21017;-63
2022/06/15 00:42:42;;;;;;;5.78;1.82;;;;;;;17.96;52.36;152167.31;1690518;84;21044;-63
2022/06/15 00:45:10;;;;;;;3.80;1.98;;;;;;;17.96;52.24;152167.31;1690562;84;21079;-62
2022/06/15 00:47:38;;;;;;;3.12;1.50;;;;;;;17.93;52.19;152158.20;1690983;84;21001;-62
2022/06/15 00:50:21;;;;;;;3.42;1.80;;;;;;;17.86;52.28;152141.25;1690787;84;21226;-62
2022/06/15 00:53:05;;;;;;;4.47;1.25;;;;;;;17.84;52.50;152136.03;1690582;84;21516;-62
2022/06/15 00:55:33;;;;;;;2.45;1.47;;;;;;;17.79;52.80;152124.28;1661755;84;21107;-62
2022/06/15 00:58:04;;;;;;;4.53;1.50;;;;;;;17.73;53.08;152109.92;1690647;84;21065;-62
2022/06/15 01:00:32;;;;;;;4.28;1.37;;;;;;;17.67;53.38;152094.28;1690595;84;21057;-62
2022/06/15 01:02:59;;;;;;;3.83;1.62;;;;;;;17.57;53.78;152068.19;1690382;84;21430;-62
2022/06/15 01:05:48;;;;;;;4.05;1.82;;;;;;;17.49;54.06;152047.33;1690782;84;21052;-63
2022/06/15 01:08:33;;;;;;;3.90;1.72;;;;;;;17.40;54.13;152026.48;1690648;83;21115;-62
2022/06/15 01:11:10;;;;;;;6.05;1.80;;;;;;;17.33;54.40;152008.20;1690667;84;21066;-63
2022/06/15 01:14:02;;;;;;;7.05;2.02;;;;;;;17.31;54.39;152003.00;1680210;84;21073;-63
2022/06/15 01:16:56;;;;;;;3.40;1.82;;;;;;;17.28;54.49;151996.50;1689727;84;21353;-62
2022/06/15 01:19:48;;;;;;;4.83;1.85;;;;;;;17.26;54.65;151991.30;1690838;84;21052;-63
2022/06/15 01:22:47;;;;;;;6.12;1.90;;;;;;;17.25;54.59;151987.36;1690463;84;21064;-62
2022/06/15 01:25:35;;;;;;;3.75;2.37;;;;;;;17.20;54.71;151975.61;1690725;84;21513;-64
2022/06/15 01:28:23;;;;;;;4.75;1.52;;;;;;;17.18;54.74;151970.41;1690497;84;21083;-63
2022/06/15 01:31:21;;;;;;;3.98;1.57;;;;;;;17.12;54.92;151954.78;1690124;84;21958;-63
2022/06/15 01:34:12;;;;;;;5.08;1.65;;;;;;;17.07;55.11;151943.03;1690374;84;20981;-63
2022/06/15 01:36:48;;;;;;;4.85;1.42;;;;;;;17.03;55.13;151932.61;1690574;84;21083;-62
2022/06/15 01:39:48;;;;;;;2.62;1.60;;;;;;;16.99;55.55;151922.19;1690482;84;21727;-62
2022/06/15 01:42:31;;;;;;;4.03;1.85;;;;;;;16.96;55.87;151914.33;1690685;84;21067;-63
2022/06/15 01:45:02;;;;;;;4.97;1.30;;;;;;;16.86;56.25;151890.84;1689965;84;21280;-63
2022/06/15 01:47:31;;;;;;;5.10;1.42;;;;;;;16.80;56.52;151875.22;1690475;84;21060;-63
2022/06/15 01:50:09;;;;;;;2.98;1.65;;;;;;;16.73;56.77;151858.25;1690603;84;21056;-62
2022/06/15 01:53:15;;;;;;;3.85;1.52;;;;;;;16.68;56.98;151843.91;1690571;84;21042;-62
2022/06/15 01:55:56;;;;;;;2.72;1.60;;;;;;;16.64;57.22;151833.50;1690892;84;21054;-62
2022/06/15 01:58:25;;;;;;;3.08;1.30;;;;;;;16.59;57.53;151821.80;1690574;84;21234;-62
2022/06/15 02:01:02;;;;;;;3.37;1.40;;;;;;;16.55;57.76;151811.33;1690661;84;21009;-62
2022/06/15 02:03:36;;;;;;;3.45;1.60;;;;;;;16.51;58.09;151802.25;1690735;84;21060;-63
2022/06/15 02:06:30;;;;;;;2.92;1.52;;;;;;;16.48;58.41;151794.44;1690244;84;21023;-63
2022/06/15 02:09:23;;;;;;;7.03;1.60;;;;;;;16.49;58.58;151797.03;1690730;84;21016;-57
2022/06/15 02:11:51;;;;;;;3.60;1.40;;;;;;;16.45;58.78;151786.56;1690750;84;21553;-58
2022/06/15 02:14:24;;;;;;;6.47;1.42;;;;;;;16.47;59.02;151791.83;1690462;84;21040;-57
2022/06/15 02:16:59;;;;;;;5.22;1.50;;;;;;;16.50;58.94;151799.64;1690922;84;21033;-57
2022/06/15 02:19:45;;;;;;;5.47;1.60;;;;;;;16.48;59.20;151794.44;1661256;84;21052;-57
2022/06/15 02:22:18;;;;;;;2.80;1.40;;;;;;;16.53;59.45;151806.13;1690613;84;20985;-57
2022/06/15 02:24:47;;;;;;;3.42;1.62;;;;;;;16.50;59.64;151799.64;1674965;83;21222;-58
2022/06/15 02:27:14;;;;;;;4.17;1.87;;;;;;;16.56;59.76;151815.27;1671177;85;21045;-57
2022/06/15 02:29:43;;;;;;;3.87;1.65;;;;;;;16.69;59.63;151846.52;1670129;85;21002;-63
2022/06/15 02:32:13;;;;;;;1.92;1.60;;;;;;;16.83;59.51;151881.75;1670819;85;21432;-57
2022/06/15 02:34:40;;;;;;;4.03;1.50;;;;;;;16.92;59.38;151903.91;1651369;85;21101;-57
2022/06/15 02:37:09;;;;;;;3.52;1.30;;;;;;;16.96;59.20;151914.33;1671104;84;21228;-58
2022/06/15 02:39:37;;;;;;;5.15;1.70;;;;;;;16.96;59.12;151915.59;1670595;85;21116;-57
2022/06/15 02:42:28;;;;;;;3.33;1.32;;;;;;;17.00;58.97;151924.80;1670793;85;21077;-58
2022/06/15 02:45:14;;;;;;;4.15;1.57;;;;;;;17.03;58.58;151933.94;1670702;85;21017;-57
2022/06/15 02:47:42;;;;;;;6.20;1.57;;;;;;;17.02;58.50;151930.00;1670960;84;20991;-57
2022/06/15 02:50:13;;;;;;;8.35;2.02;;;;;;;17.07;58.40;151943.03;1670618;85;21249;-58
2022/06/15 02:52:43;;;;;;;6.83;1.57;;;;;;;17.12;58.21;151954.78;1671056;85;21119;-63
2022/06/15 02:55:13;;;;;;;5.33;2.47;;;;;;;17.14;58.03;151961.31;1670753;84;21112;-63
2022/06/15 02:57:50;;;;;;;4.67;2.15;;;;;;;17.18;57.86;151971.73;1670956;84;21415;-63
2022/06/15 03:00:20;;;;;;;4.33;1.65;;;;;;;17.18;57.56;151971.73;1671539;84;21527;-63
2022/06/15 03:02:48;;;;;;;4.22;1.42;;;;;;;17.15;57.58;151963.92;1670950;84;21197;-64
2022/06/15 03:05:16;;;;;;;4.67;1.75;;;;;;;17.13;57.61;151957.38;1671584;84;20950;-64
2022/06/15 03:07:45;;;;;;;7.15;2.05;;;;;;;17.11;57.72;151953.45;1671352;84;21045;-63
2022/06/15 03:10:13;;;;;;;4.05;2.20;;;;;;;17.03;58.09;151933.94;1670838;85;21030;-63
2022/06/15 03:12:42;;;;;;;4.75;1.62;;;;;;;17.10;58.04;151950.84;1671014;85;21078;-64
2022/06/15 03:15:11;;;;;;;5.60;1.85;;;;;;;17.15;58.12;151963.92;1670602;85;21506;-63
2022/06/15 03:17:39;;;;;;;4.72;1.62;;;;;;;17.21;58.26;151976.94;1670594;84;21014;-64
2022/06/15 03:20:10;;;;;;;2.75;1.77;;;;;;;17.36;57.80;152016.06;1670774;84;21033;-63
2022/06/15 03:22:38;;;;;;;3.40;1.45;;;;;;;17.51;57.39;152052.55;1670780;84;22267;-63
2022/06/15 03:25:08;;;;;;;3.87;1.67;;;;;;;17.57;57.21;152069.50;1685224;85;21052;-63
2022/06/15 03:27:36;;;;;;;4.80;1.70;;;;;;;17.67;57.04;152094.28;1686279;84;21621;-64
2022/06/15 03:30:07;;;;;;;4.15;1.40;;;;;;;17.76;57.00;152116.47;1686013;85;21017;-63
2022/06/15 03:32:37;;;;;;;8.35;1.57;;;;;;;17.92;56.84;152156.88;1685822;84;21014;-63
2022/06/15 03:35:06;;;;;;;4.30;1.85;;;;;;;18.10;55.87;152201.28;1686018;85;21497;-64
2022/06/15 03:37:34;;;;;;;2.75;1.40;;;;;;;18.13;55.73;152209.11;1686168;85;21040;-64
2022/06/15 03:40:08;;;;;;;8.55;2.10;;;;;;;18.19;55.31;152224.75;1683777;84;21249;-63
2022/06/15 03:42:40;;;;;;;2.50;1.67;;;;;;;18.26;54.94;152241.72;1686000;84;21057;-63
2022/06/15 03:45:08;;;;;;;5.78;1.50;;;;;;;18.32;54.64;152258.69;1686034;84;21052;-63
2022/06/15 03:47:36;;;;;;;3.15;1.75;;;;;;;18.33;54.52;152261.28;1686018;85;21045;-63
2022/06/15 03:50:04;;;;;;;3.75;1.67;;;;;;;18.42;54.52;152282.16;1685976;85;21092;-63
2022/06/15 03:52:31;;;;;;;5.92;1.70;;;;;;;18.45;54.59;152289.97;1686048;85;21576;-58
2022/06/15 03:55:00;;;;;;;2.15;1.60;;;;;;;18.54;54.46;152313.48;1686050;85;21049;-58
2022/06/15 03:57:28;;;;;;;5.92;1.70;;;;;;;18.63;54.26;152334.34;1686293;84;21028;-56
2022/06/15 03:59:56;;;;;;;5.28;1.70;;;;;;;18.71;53.74;152356.53;1685765;85;21028;-56
2022/06/15 04:02:41;;;;;;;;;;;;;;;18.78;53.76;152373.50;1688659;85;21092;-57
2022/06/15 04:05:21;;;;;;;4.70;1.80;;;;;;;18.95;53.38;152415.28;1685764;84;21276;-58
2022/06/15 04:10:35;;;;;;;3.47;1.57;;;;;;;19.15;52.65;152467.55;1686092;85;21013;-57
2022/06/15 04:13:05;;;;;;;3.75;1.85;;;;;;;19.30;52.22;152504.06;1686109;85;21008;-57
2022/06/15 04:15:32;;;;;;;4.22;1.80;;;;;;;19.44;50.86;152539.31;1686174;85;21116;-58
2022/06/15 04:18:00;;;;;;;4.22;1.60;;;;;;;19.41;50.75;152531.48;1666580;85;21199;-57
2022/06/15 04:20:40;;;;;;;6.17;1.98;;;;;;;19.46;50.66;152545.84;1685255;84;20993;-58
2022/06/15 04:23:13;;;;;;;4.53;1.70;;;;;;;19.57;50.45;152571.98;1686019;84;21069;-58
2022/06/15 04:25:51;;;;;;;4.72;2.02;;;;;;;19.63;49.89;152587.64;1669424;84;21064;-57
2022/06/15 04:28:20;;;;;;;4.58;1.82;;;;;;;19.68;49.67;152600.69;1667746;84;21576;-56
2022/06/15 04:30:48;;;;;;;12.90;2.27;;;;;;;19.73;49.15;152612.45;1667697;85;21559;-58
2022/06/15 04:33:16;;;;;;;5.62;1.80;;;;;;;19.82;48.97;152634.66;1668316;84;21014;-58
2022/06/15 04:35:44;;;;;;;7.05;1.75;;;;;;;19.94;48.54;152664.75;1667879;85;20998;-59
2022/06/15 04:38:14;;;;;;;3.42;1.55;;;;;;;20.04;47.90;152692.17;1667922;86;21061;-58
2022/06/15 04:40:47;;;;;;;7.37;1.60;;;;;;;20.14;47.84;152715.66;1667006;85;21097;-58
2022/06/15 04:43:15;;;;;;;2.85;1.65;;;;;;;20.26;47.38;152747.03;1668053;84;21120;-57
2022/06/15 04:45:42;;;;;;;4.15;1.60;;;;;;;20.42;46.56;152786.19;1667888;85;21085;-58
2022/06/15 04:48:11;;;;;;;3.75;1.60;;;;;;;20.51;45.78;152808.41;1667454;85;21083;-57
2022/06/15 04:50:39;;;;;;;1.82;1.50;;;;;;;20.57;45.42;152825.39;1659708;84;21081;-58
2022/06/15 04:53:08;;;;;;;6.15;1.52;;;;;;;20.79;45.11;152879.00;1667883;85;21051;-57
2022/06/15 04:55:36;;;;;;;3.90;1.47;;;;;;;20.95;44.43;152919.53;1667796;85;21091;-57
2022/06/15 04:58:04;;;;;;;3.08;1.45;;;;;;;21.04;43.93;152943.05;1669700;84;21045;-57
2022/06/15 05:00:36;;;;;;;4.12;1.40;;;;;;;21.05;43.52;152945.66;1667825;85;21054;-58
2022/06/15 05:03:04;;;;;;;4.35;1.40;;;;;;;21.06;43.53;152946.98;1668423;84;21403;-57
2022/06/15 05:05:32;;;;;;;4.37;1.50;;;;;;;21.17;43.15;152975.70;1667834;86;21533;-58
2022/06/15 05:07:59;;;;;;;3.15;2.08;;;;;;;21.23;43.00;152990.09;1668595;84;22616;-57
2022/06/15 05:10:28;;;;;;;2.90;1.55;;;;;;;21.24;42.84;152994.05;1668018;85;21022;-57
2022/06/15 05:12:55;;;;;;;6.17;1.60;;;;;;;21.31;43.18;153011.00;1640746;84;21078;-57
2022/06/15 05:15:25;;;;;;;5.85;1.52;;;;;;;21.33;43.12;153016.22;1624977;87;21133;-57
2022/06/15 05:17:54;;;;;;;4.08;1.62;;;;;;;21.38;42.44;153029.33;1639345;86;21507;-57
2022/06/15 05:20:22;;;;;;;4.33;1.77;;;;;;;21.35;43.18;153020.16;1613827;86;21165;-57
2022/06/15 05:22:52;;;;;;;9.25;1.60;;;;;;;21.40;42.85;153034.55;1612212;87;21169;-56
2022/06/15 05:25:20;;;;;;;5.28;2.12;;;;;;;21.44;42.38;153043.67;1652102;84;21088;-57
2022/06/15 05:27:49;;;;;;;3.52;1.65;;;;;;;21.43;42.43;153042.39;1627117;87;21121;-57
2022/06/15 05:30:17;;;;;;;2.22;1.20;;;;;;;21.49;42.49;153055.45;1627923;86;21020;-58
2022/06/15 05:32:46;;;;;;;3.67;1.20;;;;;;;21.60;41.95;153084.23;1604271;86;21093;-56
2022/06/15 05:35:15;;;;;;;4.33;1.30;;;;;;;21.62;41.41;153089.45;1622784;86;21036;-57
2022/06/15 05:37:43;;;;;;;7.42;1.60;;;;;;;21.57;41.56;153077.67;1627049;86;21052;-57
2022/06/15 05:40:12;;;;;;;5.80;1.40;;;;;;;21.58;41.62;153079.00;1627408;87;21041;-58
2022/06/15 05:42:41;;;;;;;5.53;1.50;;;;;;;21.60;41.38;153084.23;1642099;86;21017;-58
2022/06/15 05:45:09;;;;;;;8.98;1.80;;;;;;;21.64;41.40;153094.69;1609561;87;21272;-57
2022/06/15 05:47:36;;;;;;;2.80;1.30;;;;;;;21.77;41.24;153126.08;1642277;86;21479;-58
2022/06/15 05:50:07;;;;;;;3.27;1.37;;;;;;;21.85;41.46;153147.03;1607661;86;21095;-58
2022/06/15 05:52:36;;;;;;;3.65;1.57;;;;;;;21.91;40.62;153162.72;1633722;86;21067;-58
2022/06/15 05:55:04;;;;;;;2.60;1.47;;;;;;;21.92;40.19;153164.03;1640930;85;21054;-58
2022/06/15 05:57:31;;;;;;;3.40;1.40;;;;;;;21.92;40.14;153165.31;1639816;86;21270;-58
2022/06/15 06:00:04;;;;;;;2.20;1.35;;;;;;;21.95;40.00;153173.16;1641082;86;21872;-58
2022/06/15 06:02:33;;;;;;;4.53;1.70;;;;;;;22.00;40.44;153186.28;1622549;86;21011;-58
2022/06/15 06:04:59;;;;;;;4.60;1.57;;;;;;;22.22;40.09;153241.20;1641270;85;21527;-57
2022/06/15 06:07:28;;;;;;;4.67;1.70;;;;;;;22.23;39.96;153243.81;1650341;85;21028;-57
2022/06/15 06:09:55;;;;;;;6.35;1.50;;;;;;;22.26;40.07;153251.66;1633466;86;21256;-57
2022/06/15 06:12:23;;;;;;;6.50;1.72;;;;;;;22.44;39.69;153296.14;1602890;88;21429;-58
2022/06/15 06:14:53;;;;;;;9.18;1.67;;;;;;;22.59;39.60;153335.39;1603071;88;21080;-57
2022/06/15 06:17:21;;;;;;;5.25;1.50;;;;;;;22.79;39.13;153385.11;1599193;89;21046;-58
2022/06/15 06:19:48;;;;;;;3.22;1.37;;;;;;;22.98;38.14;153432.22;1603427;89;21491;-57
2022/06/15 06:22:15;;;;;;;3.60;1.40;;;;;;;22.96;37.77;153426.98;1615132;85;21934;-58
2022/06/15 06:24:42;;;;;;;3.95;1.50;;;;;;;22.85;38.01;153400.80;1656153;85;21051;-57
2022/06/15 06:27:11;;;;;;;3.83;1.52;;;;;;;22.84;37.40;153396.91;1655070;85;21079;-57
2022/06/15 06:29:38;;;;;;;6.20;1.52;;;;;;;22.92;37.96;153416.53;1618469;87;20991;-58
2022/06/15 06:32:06;;;;;;;2.60;1.55;;;;;;;23.23;37.33;153495.02;1639053;87;21509;-57
2022/06/15 06:34:34;;;;;;;6.33;1.67;;;;;;;23.20;36.66;153487.17;1639108;87;21126;-57
2022/06/15 06:37:05;;;;;;;5.58;1.47;;;;;;;23.21;37.03;153489.78;1641111;85;21040;-57
2022/06/15 06:39:31;;;;;;;2.60;1.25;;;;;;;23.36;37.06;153529.11;1646484;84;21565;-58
2022/06/15 06:42:00;;;;;;;8.63;1.57;;;;;;;23.49;36.28;153561.83;1627491;86;21050;-57
2022/06/15 06:44:27;;;;;;;4.95;1.35;;;;;;;23.55;36.06;153576.23;1657368;85;21035;-57
2022/06/15 06:46:54;;;;;;;4.37;1.45;;;;;;;23.48;35.55;153559.22;1642121;86;21296;-57
2022/06/15 06:49:22;;;;;;;5.47;1.55;;;;;;;23.22;35.81;153492.41;1653647;85;21163;-57
2022/06/15 06:51:50;;;;;;;2.95;1.50;;;;;;;22.95;36.48;153425.66;1624378;87;21716;-57
2022/06/15 06:54:20;;;;;;;1.98;1.20;;;;;;;22.94;36.79;153421.77;1624961;86;21099;-58
2022/06/15 06:56:47;;;;;;;2.75;1.45;;;;;;;22.97;36.53;153429.59;1650870;85;21010;-58
2022/06/15 06:59:15;;;;;;;5.15;1.30;;;;;;;22.98;36.66;153433.50;1647952;84;21241;-58
2022/06/15 07:01:43;;;;;;;2.65;1.30;;;;;;;23.04;36.49;153447.91;1657606;85;21031;-57
2022/06/15 07:04:12;;;;;;;3.37;1.37;;;;;;;23.05;36.37;153450.52;1648624;85;21103;-57
2022/06/15 07:06:40;;;;;;;3.95;1.40;;;;;;;23.07;35.92;153455.75;1608799;86;21081;-58
2022/06/15 07:09:09;;;;;;;3.65;1.42;;;;;;;23.04;35.58;153449.23;1683494;84;21013;-58
2022/06/15 07:11:36;;;;;;;4.55;1.57;;;;;;;23.09;35.45;153460.98;1673794;84;22221;-58
2022/06/15 07:14:05;;;;;;;4.80;1.52;;;;;;;23.20;35.15;153488.45;1673236;85;21018;-58
2022/06/15 07:16:32;;;;;;;2.95;1.15;;;;;;;23.29;34.45;153512.09;1638131;86;21004;-57
2022/06/15 07:19:00;;;;;;;3.83;1.25;;;;;;;23.29;34.13;153510.77;1638683;87;21149;-58
2022/06/15 07:21:28;;;;;;;3.58;1.45;;;;;;;23.26;34.31;153502.91;1637029;87;20947;-58
2022/06/15 07:23:57;;;;;;;2.27;0.90;;;;;;;23.26;34.47;153502.91;1685384;84;21247;-58
2022/06/15 07:26:28;;;;;;;3.62;1.22;;;;;;;23.38;34.00;153533.02;1646793;85;21020;-59
2022/06/15 07:28:57;;;;;;;4.80;1.35;;;;;;;23.39;32.87;153536.97;1624279;86;21502;-57
2022/06/15 07:31:29;;;;;;;6.20;1.50;;;;;;;23.30;33.31;153513.38;1647475;86;21149;-57
2022/06/15 07:33:56;;;;;;;4.85;1.40;;;;;;;23.26;33.87;153502.91;1647629;86;21062;-57
2022/06/15 07:36:24;;;;;;;3.42;1.05;;;;;;;23.22;34.50;153492.41;1631517;86;21495;-58
2022/06/15 07:38:55;;;;;;;2.92;1.25;;;;;;;23.22;34.71;153492.41;1628597;87;21066;-57
2022/06/15 07:41:24;;;;;;;3.92;1.27;;;;;;;23.16;34.93;153479.33;1682741;83;21013;-58
2022/06/15 07:43:51;;;;;;;3.05;1.17;;;;;;;23.20;35.24;153487.17;1690734;83;21040;-58
2022/06/15 07:46:18;;;;;;;2.15;1.10;;;;;;;23.36;34.17;153527.78;1689336;83;20949;-59
2022/06/15 07:51:59;;;;;;;6.25;1.40;;;;;;;23.87;34.26;153657.38;1655482;86;21052;-58
2022/06/15 07:54:26;;;;;;;4.20;1.20;;;;;;;23.99;33.79;153688.81;1680421;83;21859;-58
2022/06/15 07:56:54;;;;;;;2.83;1.12;;;;;;;23.94;33.04;153675.69;1687767;83;21015;-57
2022/06/15 07:59:22;;;;;;;1.90;1.20;;;;;;;23.86;32.85;153654.75;1685850;83;20838;-58
2022/06/15 08:01:49;;;;;;;3.27;0.90;;;;;;;23.94;32.82;153675.69;1695786;83;22129;-58
2022/06/15 08:04:18;;;;;;;3.35;1.42;;;;;;;23.94;32.38;153675.69;1683348;84;21430;-58
2022/06/15 08:06:46;;;;;;;4.25;1.37;;;;;;;23.84;32.18;153649.53;1683037;83;20993;-57
2022/06/15 08:09:15;;;;;;;1.50;0.90;;;;;;;23.85;31.23;153652.14;1700616;83;21005;-57
2022/06/15 08:12:11;;;;;;;1.80;1.20;;;;;;;23.93;31.15;153671.78;1683183;85;21059;-58
2022/06/15 08:14:12;;;;;;;4.47;1.20;;;;;;;24.02;31.06;153695.38;1685103;83;21204;-57
2022/06/15 08:16:41;;;;;;;1.15;1.05;;;;;;;24.08;30.67;153709.80;1686179;83;20936;-58
2022/06/15 08:19:08;;;;;;;2.85;1.25;;;;;;;23.97;30.65;153683.53;1696509;83;21407;-59
2022/06/15 08:21:37;;;;;;;6.60;1.00;;;;;;;23.68;31.24;153610.25;1677813;83;21126;-58
2022/06/15 08:24:05;;;;;;;2.95;1.12;;;;;;;23.51;31.89;153565.72;1697075;83;21032;-58
2022/06/15 08:26:36;;;;;;;1.50;0.88;;;;;;;23.43;31.36;153546.09;1680339;83;21843;-58
2022/06/15 08:29:06;;;;;;;2.70;1.00;;;;;;;23.37;32.02;153530.39;1674096;84;21410;-58
2022/06/15 08:31:35;;;;;;;2.87;0.90;;;;;;;23.48;32.31;153559.22;1666040;84;21042;-58
2022/06/15 08:34:05;;;;;;;4.10;1.30;;;;;;;23.56;32.34;153578.86;1686978;84;21060;-57
2022/06/15 08:36:33;;;;;;;2.55;1.20;;;;;;;23.67;32.90;153606.34;1689069;83;21017;-57
2022/06/15 08:39:00;;;;;;;4.12;1.02;;;;;;;23.76;32.79;153629.87;1681919;84;21032;-57
2022/06/15 08:42:15;;;;;;;2.95;1.12;;;;;;;23.83;32.71;153646.91;1672719;84;20990;-63
2022/06/15 08:45:01;;;;;;;4.85;1.00;;;;;;;23.88;32.41;153659.98;1677208;84;21315;-63
2022/06/15 08:47:54;;;;;;;3.00;1.00;;;;;;;23.78;31.63;153635.11;1686116;83;20965;-64
2022/06/15 08:50:53;;;;;;;4.75;1.45;;;;;;;23.75;31.49;153627.27;1676999;84;20966;-64
2022/06/15 08:53:40;;;;;;;3.98;0.95;;;;;;;23.87;31.49;153657.38;1634864;87;21826;-64
2022/06/15 08:56:24;;;;;;;2.83;1.05;;;;;;;23.90;31.13;153665.22;1650897;84;21006;-63
2022/06/15 08:59:01;;;;;;;7.22;1.15;;;;;;;24.02;30.25;153696.72;1646495;87;21024;-63
2022/06/15 09:01:52;;;;;;;1.45;0.88;;;;;;;24.22;30.22;153746.47;1672639;84;21138;-63
2022/06/15 09:05:01;;;;;;;3.02;0.90;;;;;;;24.22;29.46;153746.47;1697525;84;20986;-63
2022/06/15 09:08:10;;;;;;;3.50;0.93;;;;;;;24.14;30.12;153725.50;1675009;84;21243;-62
2022/06/15 09:10:51;;;;;;;2.12;0.90;;;;;;;23.98;30.28;153686.16;1685319;84;21081;-63
2022/06/15 09:13:40;;;;;;;2.77;0.98;;;;;;;23.79;30.34;153637.73;1683956;83;21008;-63
2022/06/15 09:16:31;;;;;;;2.92;0.82;;;;;;;23.78;30.79;153635.11;1680935;84;20974;-64
2022/06/15 09:19:15;;;;;;;3.62;0.90;;;;;;;23.83;30.76;153646.91;1676817;83;21040;-63
2022/06/15 09:21:49;;;;;;;2.92;1.00;;;;;;;23.95;30.14;153678.31;1673882;85;21525;-64
2022/06/15 09:24:23;;;;;;;2.52;1.10;;;;;;;24.09;30.14;153712.41;1688969;84;21009;-64
2022/06/15 09:26:56;;;;;;;3.62;0.90;;;;;;;24.16;30.45;153732.06;1690598;83;21001;-63
2022/06/15 09:29:37;;;;;;;3.22;0.90;;;;;;;24.12;29.89;153720.25;1695442;83;20968;-64
2022/06/15 09:32:20;;;;;;;1.70;0.68;;;;;;;24.11;29.48;153718.97;1691279;84;21122;-63
2022/06/15 09:35:16;;;;;;;4.10;1.00;;;;;;;24.21;29.80;153743.86;1691782;83;21441;-63
2022/06/15 09:37:48;;;;;;;1.57;0.80;;;;;;;24.29;30.03;153764.78;1663899;86;21040;-64
2022/06/15 09:40:16;;;;;;;4.10;0.90;;;;;;;24.39;29.99;153788.34;1695198;83;21464;-63
2022/06/15 09:43:09;;;;;;;4.87;1.22;;;;;;;24.25;29.14;153752.98;1714808;83;20964;-64
2022/06/15 09:46:05;;;;;;;3.80;0.93;;;;;;;24.09;29.46;153712.41;1716367;83;21096;-64
2022/06/15 09:48:41;;;;;;;;;;;;;;;24.00;30.00;153691.44;1694067;84;21550;-63
2022/06/15 09:51:30;;;;;;;1.10;0.80;;;;;;;24.00;30.54;153691.44;1694275;83;20516;-63
2022/06/15 09:54:18;;;;;;;2.65;1.05;;;;;;;23.97;30.68;153683.53;1699090;83;21509;-63
2022/06/15 09:56:46;;;;;;;2.45;0.90;;;;;;;23.94;31.00;153675.69;1698147;83;20997;-63
2022/06/15 09:59:15;;;;;;;1.77;0.95;;;;;;;24.02;30.96;153696.72;1643076;85;20955;-64
2022/06/15 10:01:45;;;;;;;2.60;0.90;;;;;;;24.09;30.52;153712.41;1692850;82;21289;-63
2022/06/15 10:04:25;;;;;;;2.05;1.10;;;;;;;24.10;30.66;153716.36;1665965;83;21498;-64
2022/06/15 10:06:57;;;;;;;2.70;1.10;;;;;;;24.16;30.51;153732.06;1684279;84;21111;-63
2022/06/15 10:09:29;;;;;;;1.00;0.90;;;;;;;24.18;30.30;153737.28;1631416;86;21128;-63
2022/06/15 10:12:55;;;;;;;1.57;0.90;;;;;;;24.12;30.30;153720.25;1664260;85;21073;-64
2022/06/15 10:14:34;;;;;;;3.05;1.10;;;;;;;24.02;30.62;153696.72;1608650;86;21071;-65
2022/06/15 10:17:28;;;;;;;1.50;0.90;;;;;;;23.99;30.93;153688.81;1662336;85;21025;-63
2022/06/15 10:19:55;;;;;;;1.00;0.82;;;;;;;23.98;30.44;153686.16;1632451;86;21080;-63
2022/06/15 10:22:30;;;;;;;2.58;1.02;;;;;;;23.93;29.86;153671.78;1636536;86;21075;-62
2022/06/15 10:24:58;;;;;;;2.85;1.20;;;;;;;23.86;29.70;153654.75;1610133;87;21611;-63
2022/06/15 10:27:30;;;;;;;2.95;1.00;;;;;;;23.85;30.29;153652.14;1634798;86;21927;-64
2022/06/15 10:30:12;;;;;;;1.17;1.07;;;;;;;23.88;30.62;153661.33;1632274;85;21056;-64
2022/06/15 10:33:01;;;;;;;4.42;1.00;;;;;;;23.93;30.81;153673.08;1660241;85;21025;-64
2022/06/15 10:35:32;;;;;;;2.55;0.90;;;;;;;23.95;30.51;153678.31;1636599;86;21068;-62
2022/06/15 10:38:01;;;;;;;3.90;1.00;;;;;;;24.00;30.36;153691.44;1653127;85;21036;-63
2022/06/15 10:40:33;;;;;;;2.15;0.85;;;;;;;23.96;30.48;153680.92;1679878;85;21237;-63
2022/06/15 10:43:27;;;;;;;2.20;1.02;;;;;;;23.93;30.48;153671.78;1650783;86;21144;-64
2022/06/15 10:46:03;;;;;;;1.72;1.10;;;;;;;23.91;30.52;153666.56;1651154;85;21108;-63
2022/06/15 10:48:49;;;;;;;4.50;1.10;;;;;;;23.93;30.65;153673.08;1651023;86;21036;-63
2022/06/15 10:51:33;;;;;;;3.92;0.90;;;;;;;23.96;30.75;153679.64;1647036;86;21537;-63
2022/06/15 10:54:34;;;;;;;1.20;1.10;;;;;;;24.03;30.75;153699.33;1651175;86;21103;-63
2022/06/15 11:03:25;;;;;;;1.85;0.80;;;;;;;24.14;30.12;153725.50;1652562;86;21467;-63
2022/06/15 11:05:53;;;;;;;8.18;1.17;;;;;;;24.03;30.08;153698.00;1650293;85;21025;-64
2022/06/15 11:08:29;;;;;;;6.10;1.00;;;;;;;23.87;30.63;153658.70;1685247;84;21260;-63
2022/06/15 11:11:18;;;;;;;6.05;1.12;;;;;;;23.91;30.47;153667.84;1649724;86;21103;-63
2022/06/15 11:13:55;;;;;;;2.30;1.15;;;;;;;24.02;30.23;153695.38;1651748;86;21032;-63
2022/06/15 11:19:25;;;;;;;2.17;0.90;;;;;;;24.20;29.76;153741.19;1653370;85;21093;-63
2022/06/15 11:22:08;;;;;;;2.90;0.80;;;;;;;24.36;29.55;153780.50;1687064;84;21262;-63
2022/06/15 11:24:59;;;;;;;1.57;0.90;;;;;;;24.51;29.18;153819.78;1688076;82;21013;-62
2022/06/15 11:27:44;;;;;;;2.77;1.52;;;;;;;24.56;29.57;153832.87;1670352;84;21062;-61
2022/06/15 11:30:27;;;;;;;6.03;1.17;;;;;;;24.54;30.01;153827.64;1694842;84;21036;-62
2022/06/15 11:33:20;;;;;;;1.62;0.90;;;;;;;24.40;30.51;153790.95;1646148;84;21052;-62
2022/06/15 11:36:43;;;;;;;2.15;0.80;;;;;;;24.30;30.66;153766.08;1646309;87;21561;-61
2022/06/15 11:39:44;;;;;;;2.67;1.10;;;;;;;24.26;30.84;153756.94;1630135;86;21025;-62
2022/06/15 11:42:14;;;;;;;1.52;0.82;;;;;;;24.39;30.94;153788.34;1639470;84;21085;-62
2022/06/15 11:44:43;;;;;;;2.87;1.07;;;;;;;24.43;30.95;153798.86;1661691;84;21103;-62
2022/06/15 11:47:52;;;;;;;2.75;1.12;;;;;;;24.52;31.31;153822.41;1698297;83;21068;-62
2022/06/15 11:50:30;;;;;;;2.83;1.10;;;;;;;24.70;31.09;153866.95;1684365;83;21147;-62
2022/06/15 11:53:30;;;;;;;4.97;0.90;;;;;;;24.75;30.95;153880.09;1692438;83;20998;-63
2022/06/15 11:56:06;;;;;;;4.30;0.90;;;;;;;24.89;30.85;153916.78;1691232;83;21036;-61
2022/06/15 11:59:20;;;;;;;1.85;1.10;;;;;;;24.91;31.00;153920.67;1689534;83;20997;-62
2022/06/15 12:02:00;;;;;;;4.20;1.10;;;;;;;24.96;31.33;153933.77;1699118;83;20954;-62
2022/06/15 12:05:06;;;;;;;1.77;1.00;;;;;;;25.02;31.10;153948.19;1687167;83;22116;-63
2022/06/15 12:07:41;;;;;;;2.15;1.00;;;;;;;24.98;31.37;153937.72;1685103;83;21084;-56
2022/06/15 12:10:45;;;;;;;2.87;1.00;;;;;;;25.00;31.54;153942.95;1672355;84;21051;-57
2022/06/15 12:13:45;;;;;;;1.57;0.90;;;;;;;25.11;31.27;153971.80;1675110;83;21056;-57
2022/06/15 12:16:39;;;;;;;2.40;1.07;;;;;;;25.18;30.96;153990.13;1670028;83;21127;-57